createdAt,value
2017-07-27T00:01:27.349Z,97718.56
2017-07-27T00:03:55.696Z,97722.05
2017-07-27T00:06:24.320Z,97718.45
2017-07-27T00:08:52.645Z,97718.19
2017-07-27T00:11:20.974Z,97729.44
2017-07-27T00:13:49.320Z,97723.88
2017-07-27T00:16:17.663Z,97720.26
2017-07-27T00:18:46.031Z,97713.36
2017-07-27T00:21:14.377Z,97715.97
2017-07-27T00:23:42.704Z,97708.00
2017-07-27T00:26:11.049Z,97707.10
2017-07-27T00:28:39.382Z,97710.09
2017-07-27T00:31:07.980Z,97704.16
2017-07-27T00:33:36.318Z,97702.44
2017-07-27T00:36:04.651Z,97705.88
2017-07-27T00:38:33.024Z,97704.36
2017-07-27T00:41:01.340Z,97703.45
2017-07-27T00:43:29.693Z,97702.52
2017-07-27T00:45:58.025Z,97701.94
2017-07-27T00:48:26.376Z,97708.13
2017-07-27T00:50:54.718Z,97699.39
2017-07-27T00:53:23.041Z,97698.45
2017-07-27T00:55:51.383Z,97704.50
2017-07-27T00:58:19.705Z,97701.11
2017-07-27T01:00:48.027Z,97705.82
2017-07-27T01:03:16.378Z,97698.98
2017-07-27T01:05:44.717Z,97703.88
2017-07-27T01:08:13.072Z,97692.31
2017-07-27T01:10:41.416Z,97691.83
2017-07-27T01:13:09.770Z,97689.58
2017-07-27T01:15:38.110Z,97690.98
2017-07-27T01:18:06.456Z,97686.73
2017-07-27T01:20:35.097Z,97688.86
2017-07-27T01:23:03.434Z,97688.88
2017-07-27T01:25:31.774Z,97688.78
2017-07-27T01:28:00.125Z,97681.66
2017-07-27T01:30:28.448Z,97679.30
2017-07-27T01:32:56.798Z,97679.61
2017-07-27T01:35:25.128Z,97675.02
2017-07-27T01:37:53.456Z,97679.14
2017-07-27T01:40:21.810Z,97673.44
2017-07-27T01:42:50.141Z,97669.68
2017-07-27T01:45:18.490Z,97673.44
2017-07-27T01:47:46.822Z,97669.09
2017-07-27T01:50:15.168Z,97665.42
2017-07-27T01:52:43.549Z,97654.59
2017-07-27T01:55:11.887Z,97662.02
2017-07-27T01:57:40.227Z,97654.20
2017-07-27T02:00:10.195Z,97648.02
2017-07-27T02:02:38.569Z,97653.34
2017-07-27T02:05:06.962Z,97647.47
2017-07-27T02:07:35.295Z,97651.82
2017-07-27T02:10:03.922Z,97646.31
2017-07-27T02:12:32.261Z,97653.67
2017-07-27T02:15:00.603Z,97645.73
2017-07-27T02:17:28.960Z,97647.59
2017-07-27T02:19:57.303Z,97638.56
2017-07-27T02:22:25.672Z,97637.94
2017-07-27T02:24:54.036Z,97639.73
2017-07-27T02:27:22.375Z,97632.09
2017-07-27T02:29:50.702Z,97632.50
2017-07-27T02:32:19.041Z,97630.77
2017-07-27T02:34:47.396Z,97639.92
2017-07-27T02:37:16.037Z,97638.25
2017-07-27T02:39:44.381Z,97633.59
2017-07-27T02:42:12.927Z,97636.05
2017-07-27T02:44:41.266Z,97634.80
2017-07-27T02:47:09.583Z,97634.53
2017-07-27T02:49:37.920Z,97633.97
2017-07-27T02:52:06.245Z,97638.25
2017-07-27T02:54:34.590Z,97634.30
2017-07-27T02:57:02.956Z,97633.80
2017-07-27T02:59:31.270Z,97633.97
2017-07-27T03:01:59.614Z,97631.16
2017-07-27T03:04:27.963Z,97634.34
2017-07-27T03:06:56.288Z,97635.27
2017-07-27T03:09:24.620Z,97637.52
2017-07-27T03:11:52.951Z,97629.45
2017-07-27T03:14:21.535Z,97625.87
2017-07-27T03:16:49.842Z,97633.83
2017-07-27T03:19:18.174Z,97630.00
2017-07-27T03:21:46.506Z,97630.64
2017-07-27T03:24:14.828Z,97634.85
2017-07-27T03:26:43.181Z,97633.81
2017-07-27T03:29:11.509Z,97632.91
2017-07-27T03:31:39.855Z,97621.84
2017-07-27T03:34:08.204Z,97621.11
2017-07-27T03:36:36.520Z,97623.99
2017-07-27T03:39:04.876Z,97623.64
2017-07-27T03:41:33.191Z,97621.39
2017-07-27T03:44:01.551Z,97615.43
2017-07-27T03:46:29.903Z,97625.50
2017-07-27T03:48:58.243Z,97613.88
2017-07-27T03:51:26.589Z,97626.78
2017-07-27T03:53:54.902Z,97626.83
2017-07-27T03:56:23.246Z,97624.27
2017-07-27T03:58:51.596Z,97619.69
2017-07-27T04:01:19.930Z,97622.41
2017-07-27T04:03:48.275Z,97622.92
2017-07-27T04:06:16.616Z,97615.72
2017-07-27T04:08:44.949Z,97616.81
2017-07-27T04:11:13.302Z,97615.38
2017-07-27T04:13:41.934Z,97610.83
2017-07-27T04:16:10.542Z,97616.95
2017-07-27T04:18:38.863Z,97618.37
2017-07-27T04:21:07.187Z,97618.75
2017-07-27T04:23:35.544Z,97612.53
2017-07-27T04:26:03.883Z,97618.37
2017-07-27T04:28:32.247Z,97618.66
2017-07-27T04:31:00.596Z,97619.30
2017-07-27T04:33:28.937Z,97606.31
2017-07-27T04:35:57.277Z,97601.50
2017-07-27T04:38:25.599Z,97608.64
2017-07-27T04:40:54.865Z,97601.73
2017-07-27T04:43:23.194Z,97591.09
2017-07-27T04:45:51.520Z,97605.42
2017-07-27T04:48:20.638Z,97614.35
2017-07-27T04:50:48.974Z,97627.22
2017-07-27T04:53:17.580Z,97635.17
2017-07-27T04:55:45.922Z,97633.99
2017-07-27T04:58:14.257Z,97635.44
2017-07-27T05:00:42.611Z,97634.25
2017-07-27T05:03:10.928Z,97633.41
2017-07-27T05:05:39.267Z,97632.99
2017-07-27T05:08:08.221Z,97634.02
2017-07-27T05:10:36.566Z,97633.93
2017-07-27T05:13:05.678Z,97630.64
2017-07-27T05:15:34.019Z,97633.59
2017-07-27T05:18:02.355Z,97627.62
2017-07-27T05:20:30.671Z,97623.72
2017-07-27T05:22:59.003Z,97629.78
2017-07-27T05:25:27.334Z,97621.95
2017-07-27T05:27:55.667Z,97620.95
2017-07-27T05:30:24.332Z,97624.46
2017-07-27T05:32:52.646Z,97631.40
2017-07-27T05:35:20.959Z,97638.33
2017-07-27T05:37:49.296Z,97643.73
2017-07-27T05:40:17.623Z,97638.33
2017-07-27T05:42:45.968Z,97635.09
2017-07-27T05:45:14.307Z,97626.09
2017-07-27T05:47:42.663Z,97638.22
2017-07-27T05:50:11.027Z,97631.59
2017-07-27T05:52:39.363Z,97629.26
2017-07-27T05:55:08.172Z,97640.67
2017-07-27T05:57:36.522Z,97638.94
2017-07-27T06:00:04.863Z,97641.48
2017-07-27T06:02:33.207Z,97646.50
2017-07-27T06:05:01.548Z,97645.30
2017-07-27T06:07:29.898Z,97656.31
2017-07-27T06:09:58.635Z,97658.20
2017-07-27T06:12:26.966Z,97659.70
2017-07-27T06:14:55.299Z,97660.59
2017-07-27T06:17:23.629Z,97661.69
2017-07-27T06:19:51.991Z,97665.55
2017-07-27T06:22:20.357Z,97667.16
2017-07-27T06:24:48.703Z,97672.70
2017-07-27T06:27:17.057Z,97684.93
2017-07-27T06:29:45.405Z,97682.27
2017-07-27T06:32:13.753Z,97683.95
2017-07-27T06:34:42.096Z,97678.94
2017-07-27T06:37:11.188Z,97683.59
2017-07-27T06:39:39.543Z,97687.18
2017-07-27T06:42:07.883Z,97684.98
2017-07-27T06:44:36.484Z,97683.84
2017-07-27T06:47:04.792Z,97677.80
2017-07-27T06:49:33.122Z,97675.33
2017-07-27T06:52:01.786Z,97675.80
2017-07-27T06:54:30.213Z,97672.75
2017-07-27T06:56:58.559Z,97678.76
2017-07-27T06:59:26.919Z,97674.82
2017-07-27T07:01:55.259Z,97679.20
2017-07-27T07:04:23.618Z,97693.29
2017-07-27T07:06:51.956Z,97691.16
2017-07-27T07:09:21.045Z,97685.61
2017-07-27T07:11:49.375Z,97679.59
2017-07-27T07:14:17.698Z,97677.36
2017-07-27T07:16:46.046Z,97676.67
2017-07-27T07:19:14.403Z,97671.66
2017-07-27T07:21:42.758Z,97674.77
2017-07-27T07:24:11.101Z,97675.05
2017-07-27T07:26:39.424Z,97663.00
2017-07-27T07:29:07.758Z,97666.34
2017-07-27T07:31:36.071Z,97663.20
2017-07-27T07:34:05.168Z,97665.88
2017-07-27T07:36:33.483Z,97670.94
2017-07-27T07:39:01.829Z,97666.95
2017-07-27T07:41:30.165Z,97670.98
2017-07-27T07:43:58.988Z,97678.14
2017-07-27T07:46:27.308Z,97674.84
2017-07-27T07:48:55.640Z,97679.75
2017-07-27T07:51:24.763Z,97676.60
2017-07-27T07:53:53.073Z,97676.33
2017-07-27T07:56:21.803Z,97675.27
2017-07-27T07:58:50.134Z,97683.80
2017-07-27T08:01:18.463Z,97684.30
2017-07-27T08:03:47.581Z,97681.64
2017-07-27T08:06:15.917Z,97683.89
2017-07-27T08:09:01.848Z,97685.91
2017-07-27T08:11:30.189Z,97687.36
2017-07-27T08:13:58.522Z,97679.91
2017-07-27T08:16:27.306Z,97680.68
2017-07-27T08:18:55.636Z,97674.16
2017-07-27T08:21:23.976Z,97667.91
2017-07-27T08:23:52.339Z,97653.83
2017-07-27T08:26:20.668Z,97655.44
2017-07-27T08:28:49.269Z,97658.09
2017-07-27T08:31:18.263Z,97665.14
2017-07-27T08:33:46.578Z,97663.41
2017-07-27T08:36:14.910Z,97662.76
2017-07-27T08:38:43.250Z,97659.17
2017-07-27T08:41:11.612Z,97652.41
2017-07-27T08:43:39.942Z,97653.98
2017-07-27T08:46:08.302Z,97664.86
2017-07-27T08:48:36.620Z,97667.67
2017-07-27T08:51:04.950Z,97666.50
2017-07-27T08:53:33.286Z,97665.70
2017-07-27T08:56:01.613Z,97665.81
2017-07-27T08:58:29.978Z,97660.66
2017-07-27T09:00:58.308Z,97661.49
2017-07-27T09:03:26.664Z,97666.50
2017-07-27T09:05:55.001Z,97668.11
2017-07-27T09:08:23.884Z,97664.49
2017-07-27T09:10:52.225Z,97665.30
2017-07-27T09:13:20.535Z,97670.45
2017-07-27T09:15:49.638Z,97668.03
2017-07-27T09:18:17.964Z,97666.52
2017-07-27T09:20:46.326Z,97658.09
2017-07-27T09:23:14.661Z,97660.80
2017-07-27T09:25:43.014Z,97656.41
2017-07-27T09:28:11.357Z,97649.64
2017-07-27T09:30:39.675Z,97656.17
2017-07-27T09:33:08.013Z,97655.40
2017-07-27T09:35:37.513Z,97657.94
2017-07-27T09:38:05.852Z,97660.43
2017-07-27T09:40:34.167Z,97655.13
2017-07-27T09:43:02.966Z,97648.63
2017-07-27T09:45:31.298Z,97648.88
2017-07-27T09:47:59.610Z,97658.18
2017-07-27T09:50:27.954Z,97648.48
2017-07-27T09:52:56.269Z,97659.10
2017-07-27T09:55:24.611Z,97647.80
2017-07-27T09:57:58.234Z,97643.45
2017-07-27T10:00:26.586Z,97652.56
2017-07-27T10:02:54.919Z,97651.81
2017-07-27T10:05:23.255Z,97648.77
2017-07-27T10:07:51.594Z,97646.13
2017-07-27T10:10:19.910Z,97640.04
2017-07-27T10:12:48.253Z,97650.98
2017-07-27T10:15:16.572Z,97645.77
2017-07-27T10:17:44.934Z,97642.31
2017-07-27T10:20:13.272Z,97641.48
2017-07-27T10:22:42.049Z,97640.94
2017-07-27T10:25:10.365Z,97650.64
2017-07-27T10:27:38.680Z,97646.36
2017-07-27T10:30:07.040Z,97647.58
2017-07-27T10:32:35.394Z,97648.23
2017-07-27T10:35:03.754Z,97645.70
2017-07-27T10:37:32.087Z,97635.45
2017-07-27T10:40:00.443Z,97634.92
2017-07-27T10:42:28.776Z,97639.17
2017-07-27T10:44:57.111Z,97631.89
2017-07-27T10:47:25.465Z,97630.34
2017-07-27T10:49:53.792Z,97638.07
2017-07-27T10:52:22.148Z,97629.70
2017-07-27T10:54:50.481Z,97631.95
2017-07-27T10:57:18.832Z,97620.78
2017-07-27T10:59:47.193Z,97618.91
2017-07-27T11:02:15.552Z,97624.60
2017-07-27T11:04:43.894Z,97618.74
2017-07-27T11:07:12.258Z,97617.52
2017-07-27T11:09:40.589Z,97614.22
2017-07-27T11:12:09.342Z,97626.30
2017-07-27T11:14:37.693Z,97623.63
2017-07-27T11:17:06.033Z,97624.52
2017-07-27T11:19:34.377Z,97624.20
2017-07-27T11:22:03.473Z,97627.94
2017-07-27T11:24:31.824Z,97616.37
2017-07-27T11:27:00.171Z,97622.66
2017-07-27T11:29:28.516Z,97602.02
2017-07-27T11:31:57.619Z,97601.63
2017-07-27T11:34:25.968Z,97597.23
2017-07-27T11:36:54.334Z,97603.64
2017-07-27T11:39:22.656Z,97608.14
2017-07-27T11:41:51.004Z,97616.25
2017-07-27T11:44:19.347Z,97612.78
2017-07-27T11:46:47.703Z,97624.64
2017-07-27T11:49:16.102Z,97610.63
2017-07-27T11:51:44.448Z,97618.08
2017-07-27T11:54:13.697Z,97603.39
2017-07-27T11:56:42.032Z,97600.09
2017-07-27T11:59:10.389Z,97582.71
2017-07-27T12:01:38.714Z,97593.05
2017-07-27T12:04:07.044Z,97610.02
2017-07-27T12:06:35.367Z,97600.58
2017-07-27T12:09:03.726Z,97603.35
2017-07-27T12:11:32.568Z,97590.11
2017-07-27T12:14:00.886Z,97574.55
2017-07-27T12:16:29.995Z,97583.61
2017-07-27T12:18:58.349Z,97581.96
2017-07-27T12:21:26.714Z,97599.22
2017-07-27T12:23:55.068Z,97595.44
2017-07-27T12:26:23.802Z,97596.05
2017-07-27T12:28:52.127Z,97595.59
2017-07-27T12:31:20.440Z,97598.13
2017-07-27T12:33:48.804Z,97595.86
2017-07-27T12:36:17.139Z,97604.14
2017-07-27T12:38:45.476Z,97597.19
2017-07-27T12:41:13.825Z,97598.02
2017-07-27T12:43:42.167Z,97589.32
2017-07-27T12:46:10.488Z,97601.02
2017-07-27T12:48:39.218Z,97598.72
2017-07-27T12:51:07.554Z,97607.47
2017-07-27T12:53:35.866Z,97605.66
2017-07-27T12:56:04.203Z,97591.41
2017-07-27T12:58:32.535Z,97587.82
2017-07-27T13:01:00.869Z,97572.09
2017-07-27T13:03:29.209Z,97569.67
2017-07-27T13:05:57.558Z,97574.95
2017-07-27T13:08:25.898Z,97571.93
2017-07-27T13:10:55.023Z,97579.08
2017-07-27T13:13:23.343Z,97579.50
2017-07-27T13:15:51.688Z,97591.19
2017-07-27T13:18:20.054Z,97588.62
2017-07-27T13:20:48.395Z,97583.85
2017-07-27T13:23:16.741Z,97584.73
2017-07-27T13:25:45.837Z,97568.27
2017-07-27T13:28:14.191Z,97556.45
2017-07-27T13:30:43.100Z,97570.89
2017-07-27T13:33:12.487Z,97564.91
2017-07-27T13:35:41.345Z,97559.62
2017-07-27T13:38:10.282Z,97564.79
2017-07-27T13:40:39.377Z,97577.64
2017-07-27T13:43:08.291Z,97576.38
2017-07-27T13:45:37.211Z,97565.72
2017-07-27T13:48:05.528Z,97559.92
2017-07-27T13:50:33.882Z,97570.23
2017-07-27T13:53:02.212Z,97557.28
2017-07-27T13:55:30.551Z,97556.45
2017-07-27T13:57:58.915Z,97560.22
2017-07-27T14:00:27.258Z,97550.24
2017-07-27T14:02:55.600Z,97552.81
2017-07-27T14:05:23.943Z,97545.27
2017-07-27T14:07:52.305Z,97547.77
2017-07-27T14:10:20.658Z,97559.45
2017-07-27T14:12:49.009Z,97571.50
2017-07-27T14:15:17.342Z,97573.06
2017-07-27T14:17:45.703Z,97557.41
2017-07-27T14:20:14.020Z,97568.86
2017-07-27T14:22:42.378Z,97567.83
2017-07-27T14:25:10.709Z,97558.31
2017-07-27T14:27:39.045Z,97556.20
2017-07-27T14:30:07.373Z,97561.77
2017-07-27T14:32:36.032Z,97555.26
2017-07-27T14:35:04.427Z,97573.16
2017-07-27T14:37:32.739Z,97566.62
2017-07-27T14:40:01.256Z,97561.09
2017-07-27T14:42:29.596Z,97545.46
2017-07-27T14:44:57.948Z,97551.31
2017-07-27T14:47:26.277Z,97545.15
2017-07-27T14:49:55.424Z,97535.28
2017-07-27T14:52:23.770Z,97546.72
2017-07-27T14:54:52.122Z,97546.61
2017-07-27T14:57:20.472Z,97550.08
2017-07-27T14:59:48.810Z,97552.38
2017-07-27T15:02:17.944Z,97556.80
2017-07-27T15:04:46.305Z,97551.79
2017-07-27T15:07:14.634Z,97556.86
2017-07-27T15:09:42.978Z,97554.45
2017-07-27T15:12:11.315Z,97561.49
2017-07-27T15:14:40.731Z,97569.02
2017-07-27T15:17:09.065Z,97567.16
2017-07-27T15:19:37.391Z,97565.97
2017-07-27T15:22:05.741Z,97558.42
2017-07-27T15:24:34.077Z,97551.93
2017-07-27T15:27:03.103Z,97551.95
2017-07-27T15:29:31.447Z,97556.23
2017-07-27T15:32:00.219Z,97556.76
2017-07-27T15:34:28.556Z,97566.91
2017-07-27T15:36:56.901Z,97576.34
2017-07-27T15:39:25.768Z,97592.84
2017-07-27T15:41:54.191Z,97587.00
2017-07-27T15:44:22.542Z,97571.41
2017-07-27T15:46:50.885Z,97564.25
2017-07-27T15:49:19.230Z,97569.16
2017-07-27T15:51:47.612Z,97570.90
2017-07-27T15:54:16.685Z,97564.79
2017-07-27T15:56:45.449Z,97564.36
2017-07-27T15:59:14.585Z,97561.30
2017-07-27T16:01:42.921Z,97552.66
2017-07-27T16:04:11.287Z,97544.94
2017-07-27T16:06:40.393Z,97544.94
2017-07-27T16:09:08.771Z,97546.93
2017-07-27T16:11:37.130Z,97547.72
2017-07-27T16:14:05.464Z,97542.69
2017-07-27T16:16:33.836Z,97544.28
2017-07-27T16:19:02.186Z,97537.50
2017-07-27T16:21:30.507Z,97535.02
2017-07-27T16:23:58.840Z,97548.31
2017-07-27T16:26:27.156Z,97546.92
2017-07-27T16:28:55.762Z,97535.12
2017-07-27T16:31:24.085Z,97520.48
2017-07-27T16:33:52.413Z,97524.10
2017-07-27T16:36:20.787Z,97515.56
2017-07-27T16:38:49.104Z,97529.24
2017-07-27T16:41:17.729Z,97521.58
2017-07-27T16:43:46.105Z,97519.44
2017-07-27T16:46:14.441Z,97510.27
2017-07-27T16:48:42.810Z,97508.11
2017-07-27T16:51:11.179Z,97510.36
2017-07-27T16:53:39.495Z,97519.43
2017-07-27T16:56:07.944Z,97518.76
2017-07-27T16:58:36.259Z,97515.69
2017-07-27T17:01:04.610Z,97518.75
2017-07-27T17:03:32.950Z,97516.90
2017-07-27T17:06:01.305Z,97523.00
2017-07-27T17:08:29.641Z,97527.25
2017-07-27T17:10:57.981Z,97528.84
2017-07-27T17:13:26.608Z,97545.17
2017-07-27T17:15:54.947Z,97552.86
2017-07-27T17:18:23.773Z,97545.05
2017-07-27T17:20:52.169Z,97544.11
2017-07-27T17:23:20.508Z,97538.23
2017-07-27T17:25:49.136Z,97533.20
2017-07-27T17:28:17.462Z,97522.55
2017-07-27T17:30:45.811Z,97500.77
2017-07-27T17:33:14.180Z,97511.92
2017-07-27T17:35:42.521Z,97525.85
2017-07-27T17:38:10.863Z,97520.70
2017-07-27T17:40:39.494Z,97504.75
2017-07-27T17:43:07.826Z,97517.61
2017-07-27T17:45:36.163Z,97505.77
2017-07-27T17:48:04.507Z,97513.59
2017-07-27T17:50:32.826Z,97503.88
2017-07-27T17:53:01.151Z,97510.80
2017-07-27T17:55:29.542Z,97512.90
2017-07-27T17:57:57.863Z,97509.01
2017-07-27T18:00:27.412Z,97510.58
2017-07-27T18:02:55.757Z,97509.25
2017-07-27T18:05:24.085Z,97516.22
2017-07-27T18:07:52.446Z,97517.59
2017-07-27T18:10:21.260Z,97524.25
2017-07-27T18:12:49.877Z,97515.45
2017-07-27T18:15:18.300Z,97511.38
2017-07-27T18:17:46.639Z,97513.67
2017-07-27T18:20:15.003Z,97507.71
2017-07-27T18:22:43.338Z,97498.30
2017-07-27T18:25:11.967Z,97505.05
2017-07-27T18:27:40.316Z,97506.48
2017-07-27T18:30:08.651Z,97499.03
2017-07-27T18:32:36.996Z,97498.66
2017-07-27T18:35:08.653Z,97509.66
2017-07-27T18:37:37.271Z,97516.66
2017-07-27T18:40:05.608Z,97515.89
2017-07-27T18:42:33.944Z,97513.84
2017-07-27T18:45:02.290Z,97518.14
2017-07-27T18:47:30.622Z,97532.34
2017-07-27T18:49:59.255Z,97531.57
2017-07-27T18:52:27.597Z,97520.80
2017-07-27T18:54:55.927Z,97519.44
2017-07-27T18:57:24.268Z,97521.16
2017-07-27T18:59:52.611Z,97510.47
2017-07-27T19:02:20.988Z,97520.16
2017-07-27T19:04:49.314Z,97522.05
2017-07-27T19:07:17.669Z,97524.13
2017-07-27T19:09:46.019Z,97531.92
2017-07-27T19:12:14.362Z,97527.89
2017-07-27T19:14:43.004Z,97536.30
2017-07-27T19:17:11.327Z,97537.34
2017-07-27T19:19:39.671Z,97542.89
2017-07-27T19:22:08.051Z,97539.20
2017-07-27T19:24:36.384Z,97541.80
2017-07-27T19:27:04.998Z,97535.33
2017-07-27T19:29:33.333Z,97545.88
2017-07-27T19:32:02.139Z,97549.47
2017-07-27T19:34:30.502Z,97546.41
2017-07-27T19:36:58.830Z,97551.02
2017-07-27T19:39:27.988Z,97545.78
2017-07-27T19:41:56.324Z,97544.03
2017-07-27T19:44:24.697Z,97549.06
2017-07-27T19:46:53.056Z,97551.05
2017-07-27T19:49:21.438Z,97549.20
2017-07-27T19:51:49.789Z,97554.27
2017-07-27T19:54:18.693Z,97558.02
2017-07-27T19:56:47.047Z,97563.70
2017-07-27T19:59:15.419Z,97568.44
2017-07-27T20:01:43.765Z,97568.52
2017-07-27T20:04:12.372Z,97570.13
2017-07-27T20:06:40.716Z,97577.39
2017-07-27T20:09:09.052Z,97575.98
2017-07-27T20:11:37.443Z,97579.48
2017-07-27T20:14:05.772Z,97589.16
2017-07-27T20:16:34.366Z,97581.28
2017-07-27T20:19:02.696Z,97578.48
2017-07-27T20:21:31.047Z,97572.51
2017-07-27T20:23:59.765Z,97574.19
2017-07-27T20:26:28.099Z,97578.00
2017-07-27T20:28:56.425Z,97576.52
2017-07-27T20:31:24.777Z,97571.80
2017-07-27T20:33:53.180Z,97573.77
2017-07-27T20:36:21.807Z,97577.50
2017-07-27T20:38:50.187Z,97580.03
2017-07-27T20:41:18.521Z,97581.87
2017-07-27T20:43:46.883Z,97581.18
2017-07-27T20:46:15.209Z,97593.16
2017-07-27T20:48:43.810Z,97604.30
2017-07-27T20:51:12.161Z,97607.57
2017-07-27T20:53:40.511Z,97603.80
2017-07-27T20:56:08.907Z,97602.88
2017-07-27T20:58:37.258Z,97608.49
2017-07-27T21:01:05.930Z,97607.47
2017-07-27T21:03:34.275Z,97610.02
2017-07-27T21:06:02.594Z,97616.22
2017-07-27T21:08:31.006Z,97617.97
2017-07-27T21:10:59.347Z,97619.98
2017-07-27T21:13:27.687Z,97610.98
2017-07-27T21:15:56.038Z,97614.98
2017-07-27T21:18:24.487Z,97617.44
2017-07-27T21:20:52.838Z,97622.41
2017-07-27T21:23:21.186Z,97627.48
2017-07-27T21:25:49.984Z,97636.31
2017-07-27T21:28:18.340Z,97639.48
2017-07-27T21:30:46.667Z,97635.48
2017-07-27T21:33:15.790Z,97637.72
2017-07-27T21:35:44.154Z,97638.06
2017-07-27T21:38:12.536Z,97647.06
2017-07-27T21:40:40.896Z,97649.16
2017-07-27T21:43:09.227Z,97654.20
2017-07-27T21:45:37.584Z,97651.38
2017-07-27T21:48:05.964Z,97661.98
2017-07-27T21:50:34.765Z,97662.69
2017-07-27T21:53:03.098Z,97667.56
2017-07-27T21:55:31.448Z,97665.44
2017-07-27T21:57:59.802Z,97662.72
2017-07-27T22:00:28.207Z,97664.97
2017-07-27T22:02:56.958Z,97671.83
2017-07-27T22:05:25.296Z,97667.13
2017-07-27T22:07:53.626Z,97680.00
2017-07-27T22:10:21.991Z,97686.02
2017-07-27T22:12:50.341Z,97686.98
2017-07-27T22:15:19.062Z,97696.30
2017-07-27T22:17:47.435Z,97698.69
2017-07-27T22:20:16.545Z,97694.34
2017-07-27T22:22:44.913Z,97703.12
2017-07-27T22:25:13.250Z,97703.75
2017-07-27T22:27:41.623Z,97708.56
2017-07-27T22:30:09.978Z,97709.22
2017-07-27T22:32:38.314Z,97710.53
2017-07-27T22:35:06.657Z,97706.95
2017-07-27T22:37:34.968Z,97712.42
2017-07-27T22:40:03.304Z,97716.00
2017-07-27T22:42:31.621Z,97712.94
2017-07-27T22:44:59.973Z,97718.14
2017-07-27T22:47:28.314Z,97728.31
2017-07-27T22:49:56.654Z,97722.93
2017-07-27T22:52:25.020Z,97730.97
2017-07-27T22:54:53.338Z,97725.67
2017-07-27T22:57:21.844Z,97732.63
2017-07-27T22:59:50.201Z,97737.63
2017-07-27T23:02:19.320Z,97733.91
2017-07-27T23:04:47.664Z,97738.22
2017-07-27T23:07:16.004Z,97741.55
2017-07-27T23:09:44.316Z,97748.27
2017-07-27T23:12:13.035Z,97747.16
2017-07-27T23:14:42.130Z,97748.32
2017-07-27T23:17:10.468Z,97750.32
2017-07-27T23:19:38.797Z,97757.83
2017-07-27T23:22:07.135Z,97763.72
2017-07-27T23:24:35.456Z,97767.67
2017-07-27T23:27:03.814Z,97776.05
2017-07-27T23:29:32.156Z,97771.45
2017-07-27T23:32:00.492Z,97769.34
2017-07-27T23:34:28.813Z,97779.38
2017-07-27T23:36:57.178Z,97772.55
2017-07-27T23:39:25.510Z,97780.63
2017-07-27T23:41:53.849Z,97784.78
2017-07-27T23:44:22.177Z,97781.80
2017-07-27T23:46:50.534Z,97783.87
2017-07-27T23:49:18.865Z,97784.33
2017-07-27T23:51:47.197Z,97783.88
2017-07-27T23:54:15.567Z,97790.11
2017-07-27T23:56:43.912Z,97790.25
2017-07-27T23:59:12.263Z,97794.82
